createdAt,value
2019-05-02T00:01:24.260Z,7.40
2019-05-02T00:04:19.945Z,7.30
2019-05-02T00:07:14.634Z,7.30
2019-05-02T00:10:07.812Z,7.20
2019-05-02T00:12:58.859Z,7.20
2019-05-02T00:15:51.269Z,7.20
2019-05-02T00:18:42.861Z,7.10
2019-05-02T00:21:38.169Z,7.00
2019-05-02T00:24:27.336Z,7.00
2019-05-02T00:27:18.891Z,6.90
2019-05-02T00:30:12.433Z,6.80
2019-05-02T00:33:04.199Z,6.80
2019-05-02T00:35:55.738Z,6.70
2019-05-02T00:38:48.941Z,6.60
2019-05-02T00:41:40.556Z,6.60
2019-05-02T00:44:34.352Z,6.50
2019-05-02T00:47:47.613Z,6.50
2019-05-02T00:50:40.692Z,6.50
2019-05-02T00:53:33.143Z,6.50
2019-05-02T00:56:24.740Z,6.50
2019-05-02T00:59:16.466Z,6.50
2019-05-02T01:02:29.889Z,6.50
2019-05-02T01:05:21.525Z,6.50
2019-05-02T01:08:13.041Z,6.50
2019-05-02T01:11:04.462Z,6.50
2019-05-02T01:14:15.773Z,6.50
2019-05-02T01:17:07.920Z,6.40
2019-05-02T01:19:59.792Z,6.50
2019-05-02T01:22:52.222Z,6.50
2019-05-02T01:25:47.229Z,6.60
2019-05-02T01:28:55.711Z,6.60
2019-05-02T01:32:03.499Z,6.60
2019-05-02T01:35:09.358Z,6.70
2019-05-02T01:38:26.287Z,6.70
2019-05-02T01:41:19.240Z,6.60
2019-05-02T01:44:11.487Z,6.60
2019-05-02T01:47:02.815Z,6.50
2019-05-02T01:49:57.146Z,6.50
2019-05-02T01:52:47.489Z,6.40
2019-05-02T01:55:39.179Z,6.40
2019-05-02T01:58:30.938Z,6.40
2019-05-02T02:01:23.341Z,6.30
2019-05-02T02:04:16.305Z,6.30
2019-05-02T02:07:08.232Z,6.20
2019-05-02T02:09:59.712Z,6.10
2019-05-02T02:13:03.209Z,6.10
2019-05-02T02:15:44.258Z,6.10
2019-05-02T02:18:40.059Z,6.10
2019-05-02T02:21:37.820Z,6.00
2019-05-02T02:24:38.400Z,6.00
2019-05-02T02:27:29.305Z,5.90
2019-05-02T02:30:24.494Z,5.90
2019-05-02T02:33:14.927Z,5.90
2019-05-02T02:36:06.300Z,5.90
2019-05-02T02:38:57.665Z,5.90
2019-05-02T02:41:52.149Z,5.90
2019-05-02T02:45:13.061Z,5.90
2019-05-02T02:48:03.964Z,5.90
2019-05-02T02:50:56.071Z,5.90
2019-05-02T02:53:47.653Z,5.90
2019-05-02T02:56:40.606Z,6.00
2019-05-02T02:59:32.921Z,6.00
2019-05-02T03:02:24.218Z,6.00
2019-05-02T03:05:18.885Z,6.10
2019-05-02T03:08:08.604Z,6.30
2019-05-02T03:11:00.133Z,6.40
2019-05-02T03:14:16.627Z,6.40
2019-05-02T03:17:07.991Z,6.40
2019-05-02T03:20:02.179Z,6.30
2019-05-02T03:22:54.236Z,6.30
2019-05-02T03:25:50.812Z,6.40
2019-05-02T03:28:38.989Z,6.40
2019-05-02T03:31:31.536Z,6.40
2019-05-02T03:34:24.022Z,6.40
2019-05-02T03:37:15.618Z,6.50
2019-05-02T03:40:07.630Z,6.50
2019-05-02T03:42:59.843Z,6.50
2019-05-02T03:45:51.221Z,6.50
2019-05-02T03:48:43.021Z,6.50
2019-05-02T03:51:34.847Z,6.60
2019-05-02T03:54:26.510Z,6.60
2019-05-02T03:57:17.888Z,6.60
2019-05-02T04:00:13.968Z,6.60
2019-05-02T04:03:02.721Z,6.70
2019-05-02T04:05:54.166Z,6.70
2019-05-02T04:08:46.537Z,6.70
2019-05-02T04:11:40.685Z,6.70
2019-05-02T04:14:37.915Z,6.80
2019-05-02T04:17:29.139Z,6.90
2019-05-02T04:20:17.739Z,6.90
2019-05-02T04:23:10.388Z,7.00
2019-05-02T04:26:06.656Z,7.00
2019-05-02T04:28:55.518Z,7.00
2019-05-02T04:31:47.029Z,7.00
2019-05-02T04:34:38.688Z,7.10
2019-05-02T04:37:34.422Z,7.20
2019-05-02T04:40:23.085Z,7.20
2019-05-02T04:43:14.499Z,7.30
2019-05-02T04:46:09.323Z,7.40
2019-05-02T04:48:59.058Z,7.50
2019-05-02T04:51:59.856Z,7.50
2019-05-02T04:54:43.573Z,7.60
2019-05-02T04:57:39.306Z,7.60
2019-05-02T05:00:29.442Z,7.70
2019-05-02T05:03:21.248Z,7.80
2019-05-02T05:06:12.761Z,7.80
2019-05-02T05:09:10.389Z,7.90
2019-05-02T05:12:02.450Z,8.00
2019-05-02T05:14:51.844Z,8.00
2019-05-02T05:17:43.269Z,8.00
2019-05-02T05:20:37.713Z,8.10
2019-05-02T05:23:51.842Z,8.20
2019-05-02T05:26:44.679Z,8.30
2019-05-02T05:29:37.481Z,8.40
2019-05-02T05:32:28.998Z,8.40
2019-05-02T05:35:20.364Z,8.50
2019-05-02T05:38:11.683Z,8.60
2019-05-02T05:41:08.170Z,8.60
2019-05-02T05:43:57.322Z,8.70
2019-05-02T05:46:49.548Z,8.80
2019-05-02T05:49:41.265Z,8.80
2019-05-02T05:52:33.207Z,9.00
2019-05-02T05:55:25.662Z,9.10
2019-05-02T05:58:18.737Z,9.20
2019-05-02T06:01:10.973Z,9.30
2019-05-02T06:04:02.565Z,9.50
2019-05-02T06:06:58.846Z,9.60
2019-05-02T06:09:47.283Z,9.70
2019-05-02T06:12:38.754Z,9.90
2019-05-02T06:15:33.872Z,9.90
2019-05-02T06:18:23.439Z,10.00
2019-05-02T06:21:17.055Z,10.00
2019-05-02T06:24:10.987Z,10.10
2019-05-02T06:27:02.277Z,10.20
2019-05-02T06:29:56.207Z,10.30
2019-05-02T06:32:49.994Z,10.50
2019-05-02T06:35:40.074Z,10.60
2019-05-02T06:38:31.707Z,10.70
2019-05-02T06:41:23.309Z,10.90
2019-05-02T06:44:18.394Z,11.00
2019-05-02T06:47:07.571Z,11.30
2019-05-02T06:50:01.202Z,11.40
2019-05-02T06:52:51.985Z,11.50
2019-05-02T06:55:43.350Z,11.40
2019-05-02T06:58:37.151Z,11.40
2019-05-02T07:01:28.500Z,11.40
2019-05-02T07:04:22.782Z,11.40
2019-05-02T07:07:13.848Z,11.30
2019-05-02T07:10:07.471Z,11.30
2019-05-02T07:13:09.975Z,11.30
2019-05-02T07:16:16.215Z,11.50
2019-05-02T07:19:32.574Z,11.60
2019-05-02T07:22:24.211Z,11.80
2019-05-02T07:25:18.099Z,11.90
2019-05-02T07:28:10.773Z,12.10
2019-05-02T07:31:06.497Z,12.30
2019-05-02T07:33:56.210Z,12.50
2019-05-02T07:36:48.078Z,12.60
2019-05-02T07:39:41.055Z,12.80
2019-05-02T07:42:36.914Z,13.00
2019-05-02T07:45:26.123Z,13.10
2019-05-02T07:48:18.939Z,13.20
2019-05-02T07:51:10.516Z,13.20
2019-05-02T07:54:01.982Z,13.30
2019-05-02T07:56:54.598Z,13.40
2019-05-02T07:59:46.281Z,13.60
2019-05-02T08:02:38.098Z,13.60
2019-05-02T08:05:29.503Z,13.60
2019-05-02T08:08:25.133Z,13.60
2019-05-02T08:11:15.401Z,13.50
2019-05-02T08:14:06.839Z,13.30
2019-05-02T08:17:05.485Z,13.10
2019-05-02T08:19:51.666Z,13.10
2019-05-02T08:22:48.511Z,12.90
2019-05-02T08:25:36.699Z,12.90
2019-05-02T08:28:40.440Z,12.80
2019-05-02T08:31:32.837Z,12.80
2019-05-02T08:34:32.459Z,12.90
2019-05-02T08:37:24.012Z,13.00
2019-05-02T08:40:15.559Z,13.20
2019-05-02T08:43:09.003Z,13.30
2019-05-02T08:45:59.934Z,13.40
2019-05-02T08:48:51.576Z,13.50
2019-05-02T08:51:43.179Z,13.60
2019-05-02T08:54:34.774Z,13.70
2019-05-02T08:57:29.967Z,13.80
2019-05-02T09:00:19.518Z,13.90
2019-05-02T09:03:10.972Z,13.90
2019-05-02T09:06:05.949Z,13.90
2019-05-02T09:08:55.818Z,13.80
2019-05-02T09:12:02.409Z,13.90
2019-05-02T09:14:42.616Z,13.90
2019-05-02T09:17:38.477Z,13.90
2019-05-02T09:20:28.841Z,14.10
2019-05-02T09:23:20.279Z,14.20
2019-05-02T09:26:12.873Z,14.30
2019-05-02T09:29:05.550Z,14.40
2019-05-02T09:31:57.962Z,14.50
2019-05-02T09:34:51.858Z,14.50
2019-05-02T09:37:43.903Z,14.60
2019-05-02T09:40:36.189Z,14.70
2019-05-02T09:43:29.412Z,14.80
2019-05-02T09:46:21.762Z,14.90
2019-05-02T09:49:16.347Z,15.00
2019-05-02T09:52:06.424Z,15.00
2019-05-02T09:54:58.121Z,14.90
2019-05-02T09:57:51.906Z,14.80
2019-05-02T10:01:07.202Z,14.70
2019-05-02T10:03:58.790Z,14.70
2019-05-02T10:06:52.292Z,14.70
2019-05-02T10:09:43.151Z,14.70
2019-05-02T10:12:34.623Z,14.70
2019-05-02T10:15:26.238Z,14.60
2019-05-02T10:18:19.618Z,14.60
2019-05-02T10:21:13.517Z,14.60
2019-05-02T10:24:03.869Z,14.60
2019-05-02T10:27:04.033Z,14.60
2019-05-02T10:29:48.906Z,14.50
2019-05-02T10:32:42.606Z,14.40
2019-05-02T10:35:40.569Z,14.30
2019-05-02T10:38:32.369Z,13.90
2019-05-02T10:41:23.675Z,13.70
2019-05-02T10:44:15.460Z,13.40
2019-05-02T10:47:07.807Z,13.20
2019-05-02T10:50:03.912Z,13.10
2019-05-02T10:52:55.541Z,13.10
2019-05-02T10:55:47.595Z,13.20
2019-05-02T10:58:39.005Z,13.30
2019-05-02T11:01:33.941Z,13.40
2019-05-02T11:04:29.193Z,13.40
2019-05-02T11:07:22.618Z,13.50
2019-05-02T11:10:12.303Z,13.40
2019-05-02T11:13:42.582Z,13.30
2019-05-02T11:16:42.324Z,13.10
2019-05-02T11:19:56.028Z,12.90
2019-05-02T11:22:47.247Z,12.90
2019-05-02T11:25:39.035Z,12.80
2019-05-02T11:28:32.350Z,12.60
2019-05-02T11:31:24.671Z,12.60
2019-05-02T11:34:16.664Z,12.50
2019-05-02T11:37:08.398Z,12.50
2019-05-02T11:40:02.108Z,12.50
2019-05-02T11:42:57.230Z,12.70
2019-05-02T11:45:46.603Z,12.90
2019-05-02T11:48:38.344Z,13.30
2019-05-02T11:51:32.586Z,13.80
2019-05-02T11:54:23.771Z,14.20
2019-05-02T11:57:15.102Z,14.50
2019-05-02T12:00:09.023Z,14.70
2019-05-02T12:03:16.765Z,14.80
2019-05-02T12:06:12.216Z,14.70
2019-05-02T12:09:02.206Z,14.60
2019-05-02T12:11:56.593Z,14.50
2019-05-02T12:14:49.153Z,14.60
2019-05-02T12:17:41.967Z,14.60
2019-05-02T12:20:36.596Z,14.60
2019-05-02T12:23:26.871Z,14.80
2019-05-02T12:26:18.530Z,15.00
2019-05-02T12:29:09.847Z,15.10
2019-05-02T12:32:02.610Z,15.00
2019-05-02T12:34:54.070Z,14.90
2019-05-02T12:37:47.105Z,14.70
2019-05-02T12:40:39.693Z,14.60
2019-05-02T12:43:31.891Z,14.60
2019-05-02T12:46:23.546Z,14.50
2019-05-02T12:49:24.539Z,14.50
2019-05-02T12:52:08.525Z,14.50
2019-05-02T12:55:02.115Z,14.40
2019-05-02T12:57:55.076Z,14.30
2019-05-02T13:00:46.378Z,14.30
2019-05-02T13:04:06.635Z,14.30
2019-05-02T13:06:58.159Z,14.40
2019-05-02T13:09:52.260Z,14.70
2019-05-02T13:12:44.647Z,14.90
2019-05-02T13:15:36.620Z,15.40
2019-05-02T13:18:34.800Z,16.20
2019-05-02T13:21:39.204Z,17.20
2019-05-02T13:24:29.217Z,18.20
2019-05-02T13:27:18.760Z,18.70
2019-05-02T13:30:17.494Z,19.10
2019-05-02T13:33:12.266Z,19.20
2019-05-02T13:36:03.733Z,19.60
2019-05-02T13:38:55.332Z,19.80
2019-05-02T13:41:47.710Z,19.90
2019-05-02T13:44:46.137Z,19.60
2019-05-02T13:47:37.602Z,19.50
2019-05-02T13:50:29.259Z,19.40
2019-05-02T13:53:22.635Z,19.60
2019-05-02T13:56:45.432Z,19.90
2019-05-02T13:59:37.042Z,19.80
2019-05-02T14:02:37.895Z,19.20
2019-05-02T14:05:31.703Z,19.20
2019-05-02T14:08:44.577Z,19.00
2019-05-02T14:12:01.944Z,18.90
2019-05-02T14:14:53.680Z,19.30
2019-05-02T14:17:45.043Z,19.40
2019-05-02T14:20:37.479Z,19.50
2019-05-02T14:23:29.293Z,19.50
2019-05-02T14:26:29.625Z,19.30
2019-05-02T14:29:16.285Z,19.30
2019-05-02T14:32:20.394Z,19.60
2019-05-02T14:35:18.623Z,19.60
2019-05-02T14:38:19.471Z,19.50
2019-05-02T14:41:16.081Z,19.40
2019-05-02T14:44:08.471Z,19.30
2019-05-02T14:47:02.096Z,19.30
2019-05-02T14:49:56.625Z,19.30
2019-05-02T14:52:47.341Z,19.20
2019-05-02T14:55:42.107Z,19.10
2019-05-02T14:58:37.683Z,18.90
2019-05-02T15:01:28.000Z,18.60
2019-05-02T15:04:22.550Z,18.40
2019-05-02T15:07:17.655Z,18.30
2019-05-02T15:10:06.790Z,18.10
2019-05-02T15:13:00.106Z,18.10
2019-05-02T15:15:53.074Z,17.90
2019-05-02T15:18:47.582Z,18.00
2019-05-02T15:21:46.950Z,18.30
2019-05-02T15:24:38.067Z,18.50
2019-05-02T15:27:40.176Z,18.80
2019-05-02T15:30:24.137Z,19.10
2019-05-02T15:33:17.028Z,19.10
2019-05-02T15:36:09.349Z,19.20
2019-05-02T15:41:55.564Z,19.40
2019-05-02T15:44:47.353Z,19.30
2019-05-02T15:47:41.576Z,19.40
2019-05-02T15:50:32.630Z,19.40
2019-05-02T15:53:44.648Z,19.30
2019-05-02T15:56:35.537Z,19.40
2019-05-02T15:59:37.635Z,19.30
2019-05-02T16:02:27.673Z,19.10
2019-05-02T16:05:22.175Z,18.90
2019-05-02T16:08:13.362Z,18.60
2019-05-02T16:11:08.829Z,18.40
2019-05-02T16:13:57.981Z,18.40
2019-05-02T16:16:49.794Z,18.30
2019-05-02T16:19:46.620Z,18.20
2019-05-02T16:22:43.100Z,17.90
2019-05-02T16:25:32.031Z,17.60
2019-05-02T16:28:24.146Z,17.30
2019-05-02T16:31:17.076Z,17.00
2019-05-02T16:34:08.578Z,16.80
2019-05-02T16:37:13.432Z,16.90
2019-05-02T16:40:03.273Z,17.00
2019-05-02T16:42:56.061Z,17.00
2019-05-02T16:45:47.567Z,17.00
2019-05-02T16:48:39.199Z,17.00
2019-05-02T16:51:34.498Z,17.00
2019-05-02T16:54:23.958Z,17.00
2019-05-02T16:57:17.336Z,16.90
2019-05-02T17:00:11.340Z,16.70
2019-05-02T17:03:03.968Z,16.50
2019-05-02T17:05:55.708Z,16.20
2019-05-02T17:08:58.335Z,16.00
2019-05-02T17:11:49.297Z,15.90
2019-05-02T17:14:53.446Z,15.80
2019-05-02T17:17:37.158Z,15.70
2019-05-02T17:20:31.818Z,15.70
2019-05-02T17:23:23.134Z,15.50
2019-05-02T17:26:14.460Z,15.30
2019-05-02T17:29:06.176Z,15.20
2019-05-02T17:31:59.219Z,15.00
2019-05-02T17:34:52.326Z,14.80
2019-05-02T17:37:48.818Z,14.70
2019-05-02T17:40:37.431Z,14.70
2019-05-02T17:43:28.881Z,14.60
2019-05-02T17:46:23.663Z,14.50
2019-05-02T17:49:12.913Z,14.40
2019-05-02T17:52:35.536Z,14.20
2019-05-02T17:55:26.957Z,14.10
2019-05-02T17:58:18.331Z,14.00
2019-05-02T18:01:14.705Z,13.80
2019-05-02T18:04:12.761Z,13.70
2019-05-02T18:06:59.387Z,13.60
2019-05-02T18:09:52.461Z,13.40
2019-05-02T18:12:47.206Z,13.30
2019-05-02T18:15:38.639Z,13.10
2019-05-02T18:18:31.955Z,13.00
2019-05-02T18:21:26.983Z,12.80
2019-05-02T18:24:16.360Z,12.70
2019-05-02T18:27:08.237Z,12.50
2019-05-02T18:30:02.107Z,12.40
2019-05-02T18:32:57.892Z,12.30
2019-05-02T18:35:47.692Z,12.20
2019-05-02T18:38:39.324Z,12.10
2019-05-02T18:41:31.843Z,12.10
2019-05-02T18:44:24.439Z,12.00
2019-05-02T18:47:20.305Z,11.90
2019-05-02T18:50:46.969Z,11.80
2019-05-02T18:53:37.378Z,11.80
2019-05-02T18:56:33.971Z,11.70
2019-05-02T18:59:25.462Z,11.50
2019-05-02T19:02:15.437Z,11.40
2019-05-02T19:05:13.434Z,11.30
2019-05-02T19:08:02.446Z,11.20
2019-05-02T19:11:05.316Z,11.00
2019-05-02T19:13:47.870Z,10.90
2019-05-02T19:16:39.895Z,10.80
2019-05-02T19:19:33.020Z,10.60
2019-05-02T19:22:23.927Z,10.50
2019-05-02T19:25:15.661Z,10.50
2019-05-02T19:28:13.980Z,10.40
2019-05-02T19:31:07.035Z,10.30
2019-05-02T19:33:58.975Z,10.30
2019-05-02T19:36:50.332Z,10.30
2019-05-02T19:39:48.644Z,10.20
2019-05-02T19:42:37.179Z,10.20
2019-05-02T19:45:28.840Z,10.10
2019-05-02T19:48:22.543Z,10.10
2019-05-02T19:51:18.479Z,10.10
2019-05-02T19:54:07.474Z,10.10
2019-05-02T19:56:58.761Z,10.10
2019-05-02T19:59:52.381Z,10.20
2019-05-02T20:02:43.868Z,10.20
2019-05-02T20:05:35.698Z,10.20
2019-05-02T20:08:27.119Z,10.20
2019-05-02T20:11:18.603Z,10.20
2019-05-02T20:14:10.124Z,10.10
2019-05-02T20:17:02.367Z,10.10
2019-05-02T20:19:57.661Z,10.10
2019-05-02T20:22:49.442Z,10.10
2019-05-02T20:25:42.628Z,10.10
2019-05-02T20:28:33.922Z,10.10
2019-05-02T20:31:25.376Z,10.10
2019-05-02T20:34:17.059Z,10.10
2019-05-02T20:37:08.566Z,10.20
2019-05-02T20:39:59.908Z,10.20
2019-05-02T20:42:52.762Z,10.30
2019-05-02T20:45:46.202Z,10.30
2019-05-02T20:48:37.953Z,10.40
2019-05-02T20:51:29.281Z,10.40
2019-05-02T20:54:20.655Z,10.50
2019-05-02T20:57:12.142Z,10.50
2019-05-02T21:00:03.642Z,10.50
2019-05-02T21:02:55.258Z,10.50
2019-05-02T21:05:53.464Z,10.50
2019-05-02T21:09:02.607Z,10.40
2019-05-02T21:12:01.999Z,10.40
2019-05-02T21:14:53.695Z,10.30
2019-05-02T21:17:45.246Z,10.30
2019-05-02T21:20:37.130Z,10.30
2019-05-02T21:23:40.666Z,10.40
2019-05-02T21:26:22.208Z,10.40
2019-05-02T21:29:14.587Z,10.50
2019-05-02T21:32:07.000Z,10.50
2019-05-02T21:34:58.464Z,10.50
2019-05-02T21:37:49.961Z,10.60
2019-05-02T21:40:42.306Z,10.60
2019-05-02T21:43:34.131Z,10.50
2019-05-02T21:46:25.435Z,10.50
2019-05-02T21:49:36.026Z,10.50
2019-05-02T21:52:37.032Z,10.50
2019-05-02T21:55:54.077Z,10.50
2019-05-02T21:59:03.036Z,10.50
2019-05-02T22:01:58.215Z,10.50
2019-05-02T22:04:49.803Z,10.50
2019-05-02T22:07:41.989Z,10.50
2019-05-02T22:10:33.362Z,10.50
2019-05-02T22:13:25.912Z,10.50
2019-05-02T22:16:17.247Z,10.50
2019-05-02T22:19:09.864Z,10.50
2019-05-02T22:22:01.657Z,10.50
2019-05-02T22:24:54.537Z,10.50
2019-05-02T22:27:46.115Z,10.50
2019-05-02T22:30:37.577Z,10.50
2019-05-02T22:33:29.171Z,10.50
2019-05-02T22:36:21.772Z,10.50
2019-05-02T22:39:31.708Z,10.50
2019-05-02T22:42:23.895Z,10.50
2019-05-02T22:45:15.464Z,10.50
2019-05-02T22:48:06.782Z,10.50
2019-05-02T22:50:58.588Z,10.50
2019-05-02T22:53:52.100Z,10.40
2019-05-02T22:56:43.264Z,10.40
2019-05-02T22:59:35.434Z,10.30
2019-05-02T23:02:27.716Z,10.30
2019-05-02T23:05:19.445Z,10.30
2019-05-02T23:08:12.490Z,10.20
2019-05-02T23:11:04.391Z,10.20
2019-05-02T23:13:56.074Z,10.20
2019-05-02T23:16:47.648Z,10.20
2019-05-02T23:19:39.288Z,10.30
2019-05-02T23:22:32.356Z,10.30
2019-05-02T23:25:42.542Z,10.30
2019-05-02T23:28:36.041Z,10.30
2019-05-02T23:31:28.109Z,10.30
2019-05-02T23:34:23.259Z,10.30
2019-05-02T23:37:13.024Z,10.30
2019-05-02T23:40:04.535Z,10.30
2019-05-02T23:42:56.160Z,10.30
2019-05-02T23:45:47.565Z,10.30
2019-05-02T23:48:39.223Z,10.30
2019-05-02T23:51:32.120Z,10.30
2019-05-02T23:54:23.808Z,10.30
2019-05-02T23:57:15.316Z,10.30
